Time;durP1;ratioP1;P1;durP2;ratioP2;P2;SDS_P1;SDS_P2;PMS_P1;PMS_P2;Temp;Humidity;BMP_temperature;BMP_pressure;BME280_temperature;BME280_humidity;BME280_pressure;Samples;Min_cycle;Max_cycle;Signal;HPM_P1;HPM_P2
2022/06/20 00:00:47;;;;;;;3.17;2.92;;;;;;;18.85;67.59;95151.56;5030871;28;20260;-65
2022/06/20 00:03:23;;;;;;;3.92;3.72;;;;;;;18.79;68.16;95146.81;5031209;28;20203;-64
2022/06/20 00:05:50;;;;;;;4.22;3.08;;;;;;;18.54;68.87;95147.53;5027423;28;21595;-65
2022/06/20 00:08:17;;;;;;;2.72;2.53;;;;;;;18.33;69.45;95154.81;5029043;28;20218;-64
2022/06/20 00:10:46;;;;;;;2.90;2.38;;;;;;;18.26;69.68;95156.16;5027459;28;20289;-65
2022/06/20 00:13:20;;;;;;;4.40;2.75;;;;;;;18.42;69.27;95152.59;5029398;28;20689;-64
2022/06/20 00:15:51;;;;;;;3.00;2.45;;;;;;;18.33;69.33;95159.97;5030185;28;20287;-65
2022/06/20 00:18:18;;;;;;;2.83;2.60;;;;;;;18.36;68.85;95159.78;5027867;28;20241;-64
2022/06/20 00:20:45;;;;;;;2.90;2.70;;;;;;;18.52;69.02;95146.78;5030014;28;20650;-65
2022/06/20 00:23:12;;;;;;;2.90;2.70;;;;;;;18.27;69.24;95149.25;5031703;28;20257;-67
2022/06/20 00:25:40;;;;;;;3.50;3.20;;;;;;;18.25;69.30;95149.34;5029219;28;20222;-64
2022/06/20 00:28:07;;;;;;;5.57;3.58;;;;;;;18.04;69.75;95145.53;5029138;28;20385;-64
2022/06/20 00:30:35;;;;;;;3.55;3.35;;;;;;;18.28;69.46;95146.59;5028679;28;20234;-64
2022/06/20 00:33:03;;;;;;;4.65;3.28;;;;;;;18.36;68.67;95149.50;5028670;28;20224;-65
2022/06/20 00:35:30;;;;;;;3.08;2.88;;;;;;;18.33;68.80;95146.28;5027606;28;20211;-63
2022/06/20 00:37:59;;;;;;;6.20;3.25;;;;;;;17.82;69.96;95137.47;5030751;28;20703;-64
2022/06/20 00:40:30;;;;;;;2.90;2.63;;;;;;;17.43;71.75;95132.94;5030626;28;20203;-65
2022/06/20 00:42:58;;;;;;;3.35;3.00;;;;;;;17.41;71.88;95137.34;5030340;28;20203;-64
2022/06/20 00:45:27;;;;;;;5.28;2.83;;;;;;;16.97;73.38;95131.31;5028177;28;20213;-64
2022/06/20 00:48:01;;;;;;;4.68;3.05;;;;;;;16.22;76.61;95129.53;5029070;28;21781;-64
2022/06/20 00:50:32;;;;;;;3.03;2.58;;;;;;;15.90;78.33;95143.25;5026586;28;20202;-64
2022/06/20 00:53:12;;;;;;;4.70;3.40;;;;;;;15.74;79.36;95142.41;5027498;28;20229;-64
2022/06/20 00:55:45;;;;;;;3.85;2.80;;;;;;;15.61;80.24;95142.19;5028816;28;20896;-65
2022/06/20 00:58:20;;;;;;;2.97;2.78;;;;;;;15.45;80.36;95142.13;5029143;28;20628;-66
2022/06/20 01:00:47;;;;;;;3.05;2.85;;;;;;;15.76;79.63;95141.41;5028828;28;21445;-63
2022/06/20 01:03:17;;;;;;;3.22;2.92;;;;;;;16.26;77.75;95131.03;5028458;28;20199;-65
2022/06/20 01:05:51;;;;;;;11.95;3.72;;;;;;;16.50;76.65;95136.53;5028755;28;20231;-63
2022/06/20 01:08:21;;;;;;;3.35;3.05;;;;;;;16.36;76.75;95133.06;5028840;28;21797;-64
2022/06/20 01:10:52;;;;;;;3.13;2.92;;;;;;;16.48;76.55;95128.09;5027986;28;20250;-64
2022/06/20 01:13:23;;;;;;;5.88;4.05;;;;;;;16.68;76.37;95121.88;5028908;28;20446;-64
2022/06/20 01:15:52;;;;;;;3.53;3.30;;;;;;;16.80;75.92;95120.38;5028206;28;20566;-64
2022/06/20 01:18:22;;;;;;;4.32;3.30;;;;;;;16.75;75.40;95123.19;5028237;28;20269;-63
2022/06/20 01:20:52;;;;;;;7.25;2.67;;;;;;;16.70;75.97;95125.19;5028969;28;20233;-64
2022/06/20 01:23:37;;;;;;;4.10;3.05;;;;;;;16.58;75.63;95131.00;5029625;28;20210;-64
2022/06/20 01:26:30;;;;;;;3.78;3.15;;;;;;;16.78;75.28;95127.31;5029583;28;20300;-65
2022/06/20 01:29:02;;;;;;;3.92;3.63;;;;;;;16.91;74.95;95126.53;5029749;28;20750;-64
2022/06/20 01:31:33;;;;;;;6.90;3.38;;;;;;;16.76;75.37;95124.84;5029786;28;20712;-63
2022/06/20 01:34:01;;;;;;;4.80;4.10;;;;;;;16.94;75.32;95128.91;5028616;28;20288;-64
2022/06/20 01:39:17;;;;;;;3.95;3.55;;;;;;;16.06;78.44;95123.59;5029361;28;20246;-64
2022/06/20 01:44:36;;;;;;;5.78;3.95;;;;;;;16.69;76.76;95131.22;5029511;28;20271;-64
2022/06/20 01:47:03;;;;;;;10.13;4.07;;;;;;;16.98;75.66;95137.28;5029891;28;22148;-64
2022/06/20 01:49:32;;;;;;;7.32;3.90;;;;;;;17.24;74.64;95131.47;5029424;28;20273;-64
2022/06/20 01:52:04;;;;;;;5.25;3.28;;;;;;;17.02;75.60;95127.66;5029762;28;20563;-64
2022/06/20 01:54:36;;;;;;;5.13;3.38;;;;;;;17.03;75.75;95122.44;5029106;28;21850;-64
2022/06/20 01:57:06;;;;;;;8.32;3.88;;;;;;;16.76;76.07;95124.84;5029394;28;20692;-64
2022/06/20 01:59:39;;;;;;;7.03;3.90;;;;;;;16.89;76.06;95127.53;5029481;28;20593;-64
2022/06/20 02:02:06;;;;;;;4.05;3.30;;;;;;;17.08;75.15;95124.72;5028763;28;20264;-64
2022/06/20 02:04:36;;;;;;;4.85;2.92;;;;;;;16.73;76.36;95125.00;5028432;28;20789;-67
2022/06/20 02:07:08;;;;;;;3.60;3.30;;;;;;;16.78;76.44;95130.72;5029705;28;20223;-63
2022/06/20 02:09:34;;;;;;;3.33;2.75;;;;;;;16.96;75.67;95134.78;5028355;28;20243;-64
2022/06/20 02:12:03;;;;;;;3.47;3.17;;;;;;;17.08;75.25;95127.28;5029433;28;20207;-64
2022/06/20 02:14:35;;;;;;;9.43;5.50;;;;;;;17.19;74.74;95122.38;5028479;28;20298;-64
2022/06/20 02:17:08;;;;;;;18.23;11.80;;;;;;;16.92;75.63;95128.19;5029174;28;20214;-64
2022/06/20 02:19:38;;;;;;;12.15;8.32;;;;;;;16.88;75.80;95124.13;5028995;28;20214;-65
2022/06/20 02:22:08;;;;;;;4.80;4.40;;;;;;;16.99;75.09;95116.66;5028567;28;20245;-64
2022/06/20 02:24:39;;;;;;;5.20;3.35;;;;;;;16.97;75.15;95122.78;5028166;28;20301;-64
2022/06/20 02:27:12;;;;;;;4.00;3.58;;;;;;;17.07;74.36;95117.97;5029151;28;20603;-64
2022/06/20 02:29:39;;;;;;;3.55;3.25;;;;;;;17.06;74.22;95122.28;5028797;28;20708;-63
2022/06/20 02:32:11;;;;;;;4.25;3.92;;;;;;;16.95;74.84;95122.88;5028461;28;20661;-63
2022/06/20 02:34:39;;;;;;;3.53;3.22;;;;;;;17.04;74.66;95123.28;5028843;28;20202;-64
2022/06/20 02:37:09;;;;;;;3.75;3.08;;;;;;;17.14;74.45;95114.09;5027687;28;21718;-63
2022/06/20 02:39:38;;;;;;;4.18;3.88;;;;;;;16.24;77.11;95107.19;5028343;28;20214;-64
2022/06/20 02:42:11;;;;;;;6.55;3.92;;;;;;;15.53;79.80;95114.41;5028212;28;20824;-63
2022/06/20 02:44:39;;;;;;;6.15;3.63;;;;;;;15.04;82.61;95110.13;5028239;28;20289;-64
2022/06/20 02:47:09;;;;;;;7.53;4.78;;;;;;;15.47;81.78;95114.72;5028084;28;20227;-63
2022/06/20 02:49:37;;;;;;;19.65;11.32;;;;;;;16.00;79.19;95108.53;5028271;28;20203;-64
2022/06/20 02:52:08;;;;;;;7.57;5.28;;;;;;;16.33;77.59;95111.78;5028094;28;20569;-64
2022/06/20 02:54:37;;;;;;;5.38;3.33;;;;;;;16.45;76.99;95114.59;5028220;28;20207;-64
2022/06/20 02:57:10;;;;;;;9.98;3.78;;;;;;;16.66;76.46;95118.56;5027591;28;20206;-64
2022/06/20 02:59:43;;;;;;;5.00;3.42;;;;;;;16.73;75.59;95114.75;5028403;28;20218;-64
2022/06/20 03:02:13;;;;;;;6.50;3.65;;;;;;;16.80;75.61;95113.50;5028219;28;20284;-64
2022/06/20 03:04:43;;;;;;;7.05;3.42;;;;;;;16.63;76.42;95118.69;5028490;28;20235;-64
2022/06/20 03:07:13;;;;;;;7.47;3.50;;;;;;;16.72;76.51;95130.22;5028347;28;20280;-64
2022/06/20 03:09:42;;;;;;;4.45;3.38;;;;;;;16.86;75.11;95118.25;5027986;28;20234;-64
2022/06/20 03:12:10;;;;;;;3.97;3.47;;;;;;;16.70;75.32;95124.34;5028204;28;20214;-64
2022/06/20 03:14:43;;;;;;;3.80;3.50;;;;;;;16.27;77.03;95116.47;5028159;28;20598;-64
2022/06/20 03:17:13;;;;;;;7.07;3.15;;;;;;;16.40;76.81;95108.91;5028551;28;20195;-64
2022/06/20 03:19:44;;;;;;;3.45;3.15;;;;;;;16.56;75.92;95113.13;5028055;28;20265;-65
2022/06/20 03:22:15;;;;;;;6.90;3.72;;;;;;;16.73;75.02;95109.63;5028574;28;20195;-65
2022/06/20 03:24:43;;;;;;;7.13;3.30;;;;;;;16.15;76.48;95112.81;5028346;28;20210;-66
2022/06/20 03:27:13;;;;;;;8.15;4.20;;;;;;;16.02;78.16;95114.41;5028426;28;20218;-65
2022/06/20 03:29:43;;;;;;;6.50;3.88;;;;;;;17.07;75.83;95117.97;5028137;28;20207;-64
2022/06/20 03:32:11;;;;;;;10.95;3.55;;;;;;;18.73;67.57;95116.31;5028018;28;20214;-65
2022/06/20 03:34:38;;;;;;;3.25;2.95;;;;;;;20.95;61.58;95113.81;5028029;28;20756;-66
2022/06/20 03:37:07;;;;;;;4.10;2.60;;;;;;;23.03;54.35;95109.69;5027226;28;20633;-64
2022/06/20 03:39:35;;;;;;;4.38;3.00;;;;;;;24.67;49.45;95101.81;5027493;28;20337;-66
2022/06/20 03:42:03;;;;;;;7.90;3.03;;;;;;;25.50;46.42;95095.16;5027418;28;20302;-65
2022/06/20 03:44:36;;;;;;;3.13;2.80;;;;;;;26.75;44.25;95107.63;5027616;28;20225;-65
2022/06/20 03:47:08;;;;;;;5.22;2.15;;;;;;;27.38;41.02;95112.75;5027666;28;20597;-65
2022/06/20 03:49:40;;;;;;;3.45;2.30;;;;;;;27.72;40.87;95116.25;5027408;28;20774;-65
2022/06/20 03:52:14;;;;;;;2.60;2.40;;;;;;;28.62;38.99;95098.34;5027473;28;20747;-65
2022/06/20 03:54:46;;;;;;;2.88;2.15;;;;;;;29.40;37.28;95099.59;5027135;28;20207;-65
2022/06/20 03:57:20;;;;;;;2.38;2.17;;;;;;;29.87;35.77;95106.69;5027859;28;20662;-65
2022/06/20 03:59:49;;;;;;;6.80;2.75;;;;;;;29.88;35.99;95110.13;5027637;28;20611;-66
2022/06/20 04:02:22;;;;;;;3.05;2.85;;;;;;;29.60;35.24;95105.28;5027394;28;20222;-66
2022/06/20 04:04:56;;;;;;;7.53;3.08;;;;;;;30.82;34.62;95106.63;5026911;28;20218;-66
2022/06/20 04:07:30;;;;;;;5.00;2.70;;;;;;;31.10;33.88;95110.34;5027451;28;20679;-66
2022/06/20 04:12:54;;;;;;;4.63;2.78;;;;;;;32.08;31.89;95113.75;5027373;28;20214;-65
2022/06/20 04:15:25;;;;;;;4.35;3.10;;;;;;;31.57;33.09;95097.00;5027265;28;20207;-65
2022/06/20 04:20:52;;;;;;;6.75;3.20;;;;;;;29.04;36.73;95087.78;5027295;28;20252;-65
2022/06/20 04:23:25;;;;;;;3.38;3.08;;;;;;;28.06;39.19;95091.94;5027346;28;20199;-65
2022/06/20 04:25:57;;;;;;;3.13;2.85;;;;;;;27.38;40.55;95089.25;5028715;28;20459;-66
2022/06/20 04:28:28;;;;;;;4.07;3.25;;;;;;;26.86;41.69;95093.56;5031455;28;20223;-66
2022/06/20 04:31:00;;;;;;;7.85;3.47;;;;;;;26.66;42.07;95090.28;5030435;28;20851;-65
2022/06/20 04:33:34;;;;;;;4.57;4.18;;;;;;;26.80;41.91;95096.75;5031466;28;20200;-65
2022/06/20 04:36:18;;;;;;;4.32;2.83;;;;;;;27.32;40.74;95097.69;5030937;28;20209;-66
2022/06/20 04:38:53;;;;;;;3.38;3.05;;;;;;;27.63;39.72;95096.31;5030585;28;20206;-65
2022/06/20 04:41:25;;;;;;;3.65;3.35;;;;;;;28.51;38.12;95096.03;5030371;28;21281;-66
2022/06/20 04:43:57;;;;;;;3.72;3.53;;;;;;;30.19;35.83;95095.28;5030616;28;20215;-65
2022/06/20 04:46:30;;;;;;;3.92;3.72;;;;;;;31.13;33.92;95091.66;5030518;28;20572;-66
2022/06/20 04:48:57;;;;;;;3.92;3.60;;;;;;;32.30;31.90;95092.78;5031174;28;20600;-66
2022/06/20 04:51:32;;;;;;;3.50;3.30;;;;;;;32.31;31.23;95084.72;5030013;28;20203;-66
2022/06/20 04:53:59;;;;;;;3.45;3.08;;;;;;;31.82;32.27;95078.38;5031299;28;20720;-65
2022/06/20 04:56:26;;;;;;;8.43;3.53;;;;;;;32.20;31.78;95077.25;5030245;28;20936;-65
2022/06/20 04:58:57;;;;;;;5.38;3.28;;;;;;;32.80;30.93;95078.81;5030758;28;20230;-65
2022/06/20 05:01:24;;;;;;;4.85;4.32;;;;;;;33.66;29.22;95075.06;5029839;28;20211;-65
2022/06/20 05:03:55;;;;;;;10.20;3.70;;;;;;;34.30;28.69;95069.59;5030520;28;20664;-66
2022/06/20 05:06:27;;;;;;;7.32;3.67;;;;;;;34.37;28.54;95067.81;5030075;28;20303;-66
2022/06/20 05:09:00;;;;;;;6.40;3.70;;;;;;;33.62;28.76;95065.94;5030686;28;20234;-66
2022/06/20 05:11:32;;;;;;;3.10;2.95;;;;;;;32.11;31.64;95067.88;5030094;28;20215;-65
2022/06/20 05:14:04;;;;;;;5.47;3.47;;;;;;;31.38;32.57;95071.25;5030511;28;20740;-66
2022/06/20 05:16:35;;;;;;;5.80;2.60;;;;;;;30.58;34.10;95070.88;5030362;28;20217;-65
2022/06/20 05:19:08;;;;;;;3.60;3.28;;;;;;;29.77;35.84;95080.66;5029063;28;20785;-66
2022/06/20 05:21:41;;;;;;;7.65;3.28;;;;;;;29.71;36.50;95081.34;5028102;28;20205;-66
2022/06/20 05:24:13;;;;;;;10.13;3.53;;;;;;;30.61;34.44;95078.41;5029648;28;20703;-66
2022/06/20 05:26:43;;;;;;;6.97;4.30;;;;;;;32.25;31.48;95072.31;5028748;28;20203;-66
2022/06/20 05:29:15;;;;;;;4.32;3.97;;;;;;;34.18;28.66;95068.50;5028646;28;20206;-66
2022/06/20 05:31:45;;;;;;;4.40;3.65;;;;;;;34.99;27.67;95074.66;5028027;28;20207;-66
2022/06/20 05:34:18;;;;;;;5.43;4.63;;;;;;;35.62;27.09;95066.38;5030039;28;20373;-66
2022/06/20 05:36:54;;;;;;;8.25;3.92;;;;;;;35.88;26.81;95070.81;5029376;28;20264;-66
2022/06/20 05:39:25;;;;;;;7.72;3.90;;;;;;;36.66;25.39;95072.34;5029801;28;20300;-66
2022/06/20 05:41:52;;;;;;;4.35;3.90;;;;;;;37.04;24.95;95064.41;5028951;28;20203;-66
2022/06/20 05:44:19;;;;;;;5.32;4.03;;;;;;;35.72;25.32;95072.84;5029476;28;20643;-66
2022/06/20 05:46:50;;;;;;;5.47;4.43;;;;;;;34.78;27.95;95069.53;5029786;28;21442;-66
2022/06/20 05:49:25;;;;;;;7.05;4.43;;;;;;;34.52;27.97;95070.28;5029668;28;20199;-66
2022/06/20 05:51:56;;;;;;;5.03;4.10;;;;;;;34.90;28.07;95067.94;5029067;28;20580;-67
2022/06/20 05:54:27;;;;;;;6.40;4.07;;;;;;;34.92;27.45;95059.81;5030046;28;20684;-67
2022/06/20 05:56:58;;;;;;;4.45;4.00;;;;;;;34.86;27.57;95063.28;5028836;28;20300;-65
2022/06/20 05:59:40;;;;;;;7.45;4.38;;;;;;;34.67;27.96;95064.81;5029912;28;20280;-65
2022/06/20 06:02:19;;;;;;;5.65;4.28;;;;;;;34.37;27.85;95059.91;5028658;28;20301;-65
2022/06/20 06:04:54;;;;;;;8.75;4.18;;;;;;;34.12;28.95;95059.56;5029053;28;20222;-67
2022/06/20 06:07:29;;;;;;;5.47;4.70;;;;;;;34.56;27.80;95060.97;5028759;28;20226;-65
2022/06/20 06:09:59;;;;;;;6.53;4.25;;;;;;;33.15;29.79;95061.31;5029207;28;20327;-66
2022/06/20 06:12:32;;;;;;;5.10;4.50;;;;;;;32.58;31.52;95058.72;5028278;28;20582;-66
2022/06/20 06:15:06;;;;;;;5.97;4.82;;;;;;;33.01;30.23;95055.09;5029382;28;20213;-65
2022/06/20 06:17:38;;;;;;;9.98;5.07;;;;;;;33.51;29.47;95044.56;5029136;28;20222;-66
2022/06/20 06:20:12;;;;;;;6.65;4.68;;;;;;;32.98;30.33;95055.47;5029570;28;20285;-66
2022/06/20 06:22:43;;;;;;;5.43;4.97;;;;;;;31.72;32.09;95047.94;5028689;28;20206;-66
2022/06/20 06:25:20;;;;;;;9.13;4.78;;;;;;;31.45;33.83;95051.16;5029361;28;20290;-66
2022/06/20 06:27:49;;;;;;;6.95;5.15;;;;;;;31.57;34.23;95054.97;5029170;28;20296;-66
2022/06/20 06:30:20;;;;;;;5.38;4.80;;;;;;;30.52;34.46;95051.38;5029229;28;20256;-65
2022/06/20 06:32:53;;;;;;;10.32;5.43;;;;;;;29.19;37.99;95046.91;5028201;28;20203;-65
2022/06/20 06:35:24;;;;;;;6.65;5.00;;;;;;;28.47;37.75;95047.63;5029030;28;20297;-66
2022/06/20 06:38:00;;;;;;;8.82;4.40;;;;;;;29.21;38.21;95044.09;5029016;28;20733;-66
2022/06/20 06:40:33;;;;;;;9.93;4.65;;;;;;;29.77;36.67;95032.69;5028767;28;20215;-66
2022/06/20 06:43:00;;;;;;;10.90;5.22;;;;;;;29.40;37.14;95030.69;5028015;28;20770;-66
2022/06/20 06:45:33;;;;;;;7.25;5.70;;;;;;;29.37;36.43;95031.00;5028525;28;20207;-66
2022/06/20 06:48:03;;;;;;;7.90;5.63;;;;;;;28.62;37.74;95032.97;5028167;28;20691;-65
2022/06/20 06:50:35;;;;;;;7.25;5.57;;;;;;;29.01;37.36;95027.94;5027885;28;20774;-65
2022/06/20 06:53:11;;;;;;;6.03;5.43;;;;;;;29.08;37.17;95016.66;5027956;28;20264;-65
2022/06/20 06:55:43;;;;;;;5.55;4.65;;;;;;;29.05;38.49;95016.16;5028158;28;20279;-66
2022/06/20 06:58:18;;;;;;;6.43;5.72;;;;;;;27.97;39.09;95014.50;5029220;28;20203;-66
2022/06/20 07:00:49;;;;;;;8.10;5.88;;;;;;;27.64;40.82;95014.41;5027696;28;20777;-66
2022/06/20 07:03:21;;;;;;;7.40;4.88;;;;;;;27.85;39.00;95013.16;5027943;28;21122;-65
2022/06/20 07:05:53;;;;;;;5.90;5.40;;;;;;;27.53;41.46;95001.56;5028156;28;20233;-66
2022/06/20 07:08:24;;;;;;;7.22;5.32;;;;;;;27.71;41.16;94994.53;5028537;28;20237;-65
2022/06/20 07:10:55;;;;;;;8.80;5.40;;;;;;;27.88;40.36;94990.16;5027764;28;20233;-66
2022/06/20 07:13:29;;;;;;;14.88;8.65;;;;;;;27.86;40.99;94992.13;5028305;28;20206;-66
2022/06/20 07:16:01;;;;;;;13.13;5.70;;;;;;;27.82;42.49;94992.59;5027979;28;20276;-66
2022/06/20 07:18:41;;;;;;;8.30;5.68;;;;;;;27.77;40.71;94993.06;5028222;28;20669;-67
2022/06/20 07:21:12;;;;;;;7.00;5.82;;;;;;;27.99;40.82;94996.88;5027921;28;20668;-65
2022/06/20 07:23:41;;;;;;;6.13;4.85;;;;;;;27.89;40.82;94989.19;5028020;28;20306;-66
2022/06/20 07:26:09;;;;;;;14.98;5.85;;;;;;;27.97;40.36;94985.75;5027713;28;20964;-67
2022/06/20 07:28:42;;;;;;;6.55;5.90;;;;;;;27.96;40.66;94981.53;5027838;28;20292;-65
2022/06/20 07:31:15;;;;;;;14.75;6.80;;;;;;;27.98;40.19;94975.16;5027538;28;20207;-66
2022/06/20 07:33:48;;;;;;;9.25;5.00;;;;;;;27.77;40.58;94978.19;5028580;28;20207;-65
2022/06/20 07:36:17;;;;;;;12.00;6.20;;;;;;;27.75;41.73;94980.16;5026820;28;20959;-66
2022/06/20 07:38:52;;;;;;;9.13;5.20;;;;;;;27.32;43.35;94982.88;5028171;28;20648;-66
2022/06/20 07:41:23;;;;;;;4.88;4.53;;;;;;;27.26;42.37;94984.31;5027833;28;20206;-66
2022/06/20 07:43:55;;;;;;;11.88;5.45;;;;;;;27.39;42.44;94983.91;5027858;28;20211;-66
2022/06/20 07:46:26;;;;;;;7.25;5.50;;;;;;;27.55;43.16;94993.59;5026385;28;20207;-66
2022/06/20 07:48:57;;;;;;;6.68;5.50;;;;;;;27.45;41.91;94988.50;5026889;28;20226;-66
2022/06/20 07:51:29;;;;;;;6.07;5.07;;;;;;;27.36;42.80;94982.41;5026309;28;20199;-66
2022/06/20 07:54:02;;;;;;;5.45;4.47;;;;;;;27.60;42.46;94984.34;5028004;28;20213;-66
2022/06/20 07:56:34;;;;;;;7.72;4.30;;;;;;;27.85;40.07;94984.44;5026340;28;20221;-66
2022/06/20 07:59:07;;;;;;;10.05;4.18;;;;;;;27.83;40.87;94979.38;5026939;28;20217;-66
2022/06/20 08:01:48;;;;;;;7.90;3.90;;;;;;;27.59;42.03;94980.09;5029356;28;20289;-66
2022/06/20 08:04:19;;;;;;;9.63;4.68;;;;;;;27.58;40.34;94973.25;5031452;28;20229;-66
2022/06/20 08:06:52;;;;;;;5.10;4.70;;;;;;;27.75;41.23;94977.53;5029659;28;20260;-66
2022/06/20 08:09:23;;;;;;;6.25;4.07;;;;;;;27.51;41.17;94971.38;5030833;28;20507;-66
2022/06/20 08:11:57;;;;;;;6.43;4.43;;;;;;;27.72;41.70;94975.25;5030562;28;20207;-66
2022/06/20 08:14:31;;;;;;;4.70;4.22;;;;;;;27.90;41.12;94961.28;5031812;28;20632;-64
2022/06/20 08:17:01;;;;;;;5.63;3.80;;;;;;;27.98;39.86;94963.88;5030413;28;20206;-66
2022/06/20 08:19:30;;;;;;;4.22;3.83;;;;;;;28.03;39.88;94962.44;5030766;28;20266;-65
2022/06/20 08:22:03;;;;;;;7.53;3.90;;;;;;;27.88;39.56;94973.69;5030627;28;20210;-66
2022/06/20 08:24:33;;;;;;;5.70;3.58;;;;;;;27.64;39.34;94966.59;5030981;28;21495;-66
2022/06/20 08:27:05;;;;;;;5.75;3.88;;;;;;;27.47;40.10;94967.47;5029670;28;20686;-65
2022/06/20 08:29:37;;;;;;;7.45;4.57;;;;;;;27.43;40.26;94975.59;5030346;28;20227;-65
2022/06/20 08:32:11;;;;;;;3.80;3.45;;;;;;;27.44;40.13;94966.81;5029962;28;21613;-66
2022/06/20 08:34:44;;;;;;;3.95;2.92;;;;;;;27.71;39.61;94963.19;5030143;28;20289;-66
2022/06/20 08:37:18;;;;;;;4.25;3.38;;;;;;;27.37;40.03;94959.75;5030072;28;20210;-65
2022/06/20 08:39:51;;;;;;;7.10;3.80;;;;;;;27.69;40.03;94954.69;5030781;28;20230;-65
2022/06/20 08:42:38;;;;;;;4.90;3.30;;;;;;;27.87;39.43;94951.16;5030058;28;20282;-66
2022/06/20 08:45:41;;;;;;;5.88;3.22;;;;;;;27.96;38.84;94951.03;5031283;28;20207;-65
2022/06/20 08:48:54;;;;;;;6.50;3.58;;;;;;;27.77;38.33;94956.50;5029264;28;20226;-67
2022/06/20 08:55:09;;;;;;;9.07;7.15;;;;;;;27.34;38.14;94954.84;5010488;28;20231;-66
2022/06/20 08:57:50;;;;;;;8.25;7.55;;;;;;;27.49;38.59;94953.25;5030048;28;20304;-65
2022/06/20 09:00:20;;;;;;;5.65;2.40;;;;;;;27.46;34.89;94952.78;5028979;28;20222;-66
2022/06/20 09:03:16;;;;;;;3.47;2.30;;;;;;;27.60;34.83;94954.81;5026666;28;20283;-66
2022/06/20 09:06:07;;;;;;;2.83;1.95;;;;;;;27.12;34.34;94955.38;5028983;28;20581;-65
2022/06/20 09:08:56;;;;;;;2.72;1.85;;;;;;;26.81;36.78;94947.16;5026979;28;20237;-66
2022/06/20 09:11:37;;;;;;;3.05;2.65;;;;;;;26.95;34.00;94944.84;5027691;28;20893;-66
2022/06/20 09:14:19;;;;;;;3.45;1.60;;;;;;;27.22;33.79;94927.41;5026944;28;20261;-66
2022/06/20 09:16:57;;;;;;;6.85;1.98;;;;;;;27.63;34.21;94933.63;5027151;28;21263;-66
2022/06/20 09:19:44;;;;;;;2.33;2.13;;;;;;;27.59;35.78;94933.09;5028369;28;20207;-67
2022/06/20 09:22:23;;;;;;;10.07;6.88;;;;;;;27.74;36.31;94915.84;5028368;28;20319;-63
2022/06/20 09:25:09;;;;;;;6.38;4.15;;;;;;;27.61;35.90;94920.72;5027682;28;20219;-62
2022/06/20 09:27:56;;;;;;;3.13;2.80;;;;;;;27.52;35.57;94921.63;5027639;28;20333;-62
2022/06/20 09:30:32;;;;;;;5.68;2.20;;;;;;;26.86;33.69;94924.88;5027790;28;20203;-63
2022/06/20 09:33:33;;;;;;;1.80;1.70;;;;;;;26.32;31.72;94920.75;5028561;28;20206;-63
2022/06/20 09:36:33;;;;;;;2.22;2.13;;;;;;;26.08;34.07;94926.53;5028513;28;20214;-61
2022/06/20 09:39:19;;;;;;;2.67;2.38;;;;;;;26.31;33.67;94919.91;5027952;28;20288;-63
2022/06/20 09:41:59;;;;;;;2.10;2.00;;;;;;;26.36;33.86;94922.91;5029323;28;20207;-63
2022/06/20 09:44:36;;;;;;;2.05;1.95;;;;;;;26.19;34.43;94921.09;5030033;28;20207;-66
2022/06/20 09:47:14;;;;;;;2.85;2.13;;;;;;;26.56;33.79;94917.50;5029727;28;20206;-65
2022/06/20 09:49:48;;;;;;;3.28;2.20;;;;;;;26.93;34.97;94920.69;5029209;28;20319;-62
2022/06/20 09:52:23;;;;;;;3.20;2.63;;;;;;;27.14;34.08;94912.50;5029327;28;20284;-65
2022/06/20 09:55:00;;;;;;;3.65;3.40;;;;;;;27.32;33.78;94915.84;5029856;28;20245;-65
2022/06/20 09:57:41;;;;;;;4.95;2.08;;;;;;;27.41;33.53;94914.09;5029832;28;20272;-65
2022/06/20 10:00:16;;;;;;;5.32;4.82;;;;;;;27.58;33.23;94907.97;5028385;28;20207;-63
2022/06/20 10:02:53;;;;;;;4.85;4.10;;;;;;;27.84;32.67;94907.06;5028979;28;20206;-63
2022/06/20 10:05:33;;;;;;;2.58;1.95;;;;;;;27.76;32.00;94902.63;5026937;28;20230;-63
2022/06/20 10:08:07;;;;;;;2.88;2.17;;;;;;;27.17;32.13;94896.56;5028661;28;20596;-63
2022/06/20 10:10:40;;;;;;;5.05;4.35;;;;;;;27.53;34.07;94896.34;5028391;28;20696;-65
2022/06/20 10:13:14;;;;;;;3.50;2.50;;;;;;;27.56;33.17;94896.84;5029200;28;20260;-63
2022/06/20 10:15:48;;;;;;;8.10;7.38;;;;;;;27.73;33.86;94895.94;5027536;28;20284;-61
2022/06/20 10:18:32;;;;;;;7.90;7.20;;;;;;;28.11;32.73;94893.72;5028622;28;20203;-64
2022/06/20 10:21:07;;;;;;;3.38;3.17;;;;;;;28.31;30.95;94887.22;5027719;28;20210;-64
2022/06/20 10:24:07;;;;;;;4.85;2.00;;;;;;;28.08;30.97;94886.19;5029209;28;20210;-64
2022/06/20 10:26:55;;;;;;;3.13;2.90;;;;;;;28.09;30.54;94882.59;5028358;28;20738;-66
2022/06/20 10:29:24;;;;;;;2.67;2.58;;;;;;;28.15;29.47;94889.81;5027415;28;21618;-64
2022/06/20 10:32:03;;;;;;;8.23;7.32;;;;;;;28.03;30.75;94889.28;5027289;28;20854;-62
2022/06/20 10:34:42;;;;;;;5.40;2.00;;;;;;;27.37;32.06;94889.28;5028722;28;20620;-62
2022/06/20 10:37:23;;;;;;;16.73;14.95;;;;;;;27.65;32.49;94872.44;5028180;28;20199;-65
2022/06/20 10:39:57;;;;;;;3.30;3.10;;;;;;;28.07;31.16;94871.50;5028303;28;20198;-61
2022/06/20 10:42:31;;;;;;;2.60;2.03;;;;;;;27.43;29.76;94875.63;5027763;28;20203;-63
2022/06/20 10:45:28;;;;;;;3.17;1.65;;;;;;;27.22;31.21;94873.41;5028854;28;21274;-62
2022/06/20 10:48:10;;;;;;;3.28;1.95;;;;;;;27.46;32.64;94866.66;5028790;28;20207;-62
2022/06/20 10:50:43;;;;;;;2.58;2.00;;;;;;;27.78;29.80;94864.94;5025715;28;20223;-64
2022/06/20 10:53:17;;;;;;;3.45;3.25;;;;;;;27.58;30.37;94866.22;5028354;28;20207;-61
2022/06/20 10:55:51;;;;;;;5.40;2.25;;;;;;;27.80;31.53;94862.16;5027840;28;20202;-64
2022/06/20 10:58:34;;;;;;;5.95;1.98;;;;;;;27.63;30.59;94861.34;5028070;28;20206;-63
2022/06/20 11:01:08;;;;;;;6.55;2.30;;;;;;;27.27;30.87;94857.28;5026698;28;20237;-61
2022/06/20 11:03:57;;;;;;;5.10;1.70;;;;;;;27.42;31.02;94847.88;5026592;28;20310;-63
2022/06/20 11:06:39;;;;;;;6.63;1.70;;;;;;;27.54;30.98;94841.38;5026937;28;20207;-62
2022/06/20 11:09:14;;;;;;;1.80;1.70;;;;;;;27.54;31.29;94846.59;5027378;28;20253;-63
2022/06/20 11:11:49;;;;;;;3.55;3.22;;;;;;;27.68;32.68;94846.00;5027248;28;20195;-63
2022/06/20 11:14:24;;;;;;;4.35;1.75;;;;;;;27.32;30.59;94847.19;5028252;28;20691;-61
2022/06/20 11:16:58;;;;;;;3.17;2.30;;;;;;;27.30;29.94;94841.31;5026496;28;20275;-63
2022/06/20 11:19:37;;;;;;;1.70;1.60;;;;;;;27.00;30.18;94833.03;5027036;28;20202;-66
2022/06/20 11:22:20;;;;;;;5.55;2.30;;;;;;;26.81;31.03;94835.88;5026242;28;20781;-63
2022/06/20 11:24:52;;;;;;;3.28;2.40;;;;;;;27.29;32.08;94834.44;5025895;28;20206;-66
2022/06/20 11:27:35;;;;;;;6.07;5.57;;;;;;;27.67;31.36;94836.53;5027326;28;20272;-67
2022/06/20 11:30:16;;;;;;;3.45;1.77;;;;;;;27.63;30.21;94829.19;5026655;28;20230;-66
2022/06/20 11:33:03;;;;;;;4.30;3.78;;;;;;;27.84;31.14;94820.88;5026340;28;20207;-68
2022/06/20 11:35:39;;;;;;;6.55;2.90;;;;;;;28.10;29.57;94817.13;5026408;28;20593;-65
2022/06/20 11:38:23;;;;;;;3.28;2.97;;;;;;;28.23;29.77;94815.84;5026824;28;20465;-67
2022/06/20 11:40:58;;;;;;;2.33;2.22;;;;;;;28.20;30.14;94817.00;5026943;28;20211;-67
2022/06/20 11:44:07;;;;;;;2.72;2.53;;;;;;;27.97;31.23;94806.34;5026785;28;20225;-65
2022/06/20 11:47:08;;;;;;;2.17;1.55;;;;;;;27.91;31.95;94812.25;5027058;28;20293;-66
2022/06/20 11:49:51;;;;;;;2.55;1.63;;;;;;;27.53;30.62;94805.81;5027688;28;20222;-69
2022/06/20 11:52:24;;;;;;;2.47;2.28;;;;;;;27.85;30.84;94806.84;5027025;28;20206;-62
2022/06/20 11:55:00;;;;;;;2.83;1.95;;;;;;;27.99;30.33;94793.94;5026424;28;20222;-64
2022/06/20 11:57:33;;;;;;;1.88;1.77;;;;;;;28.28;29.25;94803.91;5028183;28;20209;-69
2022/06/20 12:00:04;;;;;;;2.03;1.92;;;;;;;28.42;30.12;94798.03;5027475;28;20567;-65
2022/06/20 12:02:43;;;;;;;4.75;3.22;;;;;;;28.42;29.98;94792.81;5026649;28;20214;-63
2022/06/20 12:05:38;;;;;;;3.65;1.70;;;;;;;28.33;29.39;94787.75;5026690;28;20223;-66
2022/06/20 12:08:16;;;;;;;5.05;2.90;;;;;;;28.23;30.93;94790.53;5024574;28;20202;-66
2022/06/20 12:10:47;;;;;;;3.05;2.22;;;;;;;28.45;30.79;94791.66;5026514;28;20239;-69
2022/06/20 12:13:34;;;;;;;21.23;17.70;;;;;;;28.59;30.98;94782.28;5026953;28;20210;-65
2022/06/20 12:16:14;;;;;;;2.65;2.55;;;;;;;28.54;29.78;94784.59;5026572;28;20220;-68
2022/06/20 12:24:33;;;;;;;5.68;5.18;;;;;;;28.41;30.34;94772.88;5026079;28;20310;-66